Time;durP1;ratioP1;P1;durP2;ratioP2;P2;SDS_P1;SDS_P2;PMS_P1;PMS_P2;Temp;Humidity;BMP_temperature;BMP_pressure;BME280_temperature;BME280_humidity;BME280_pressure;Samples;Min_cycle;Max_cycle;Signal;HPM_P1;HPM_P2
2022/11/22 00:01:35;;;;;;;7.35;2.40;;;;;;;;;;4992152;28;20340;-74
2022/11/22 00:04:21;;;;;;;10.27;2.97;;;;;;;;;;4991261;28;20402;-74
2022/11/22 00:06:46;;;;;;;7.78;2.22;;;;;;;;;;4978709;28;20041;-74
2022/11/22 00:09:11;;;;;;;8.17;3.00;;;;;;;;;;5001115;28;20042;-75
2022/11/22 00:11:39;;;;;;;6.40;2.15;;;;;;;;;;4993155;28;20282;-74
2022/11/22 00:14:04;;;;;;;6.97;2.90;;;;;;;;;;4996119;28;20077;-74
2022/11/22 00:16:30;;;;;;;5.38;2.13;;;;;;;;;;4990962;28;20669;-74
2022/11/22 00:18:55;;;;;;;5.63;2.22;;;;;;;;;;4993465;28;20026;-75
2022/11/22 00:21:20;;;;;;;6.67;2.43;;;;;;;;;;4990113;28;20031;-75
2022/11/22 00:23:45;;;;;;;8.90;3.10;;;;;;;;;;4996622;28;20293;-75
2022/11/22 00:26:10;;;;;;;4.50;2.70;;;;;;;;;;4992994;28;20282;-74
2022/11/22 00:28:37;;;;;;;5.45;2.28;;;;;;;;;;4977780;28;20274;-80
2022/11/22 00:31:02;;;;;;;6.10;2.70;;;;;;;;;;4972125;28;20392;-80
2022/11/22 00:33:28;;;;;;;5.60;2.60;;;;;;;;;;4975116;28;20038;-81
2022/11/22 00:35:53;;;;;;;7.50;3.20;;;;;;;;;;4979506;28;20820;-80
2022/11/22 00:38:18;;;;;;;4.38;2.40;;;;;;;;;;4973190;28;20286;-81
2022/11/22 00:40:43;;;;;;;8.30;3.30;;;;;;;;;;4979420;28;20030;-80
2022/11/22 00:43:08;;;;;;;10.10;3.33;;;;;;;;;;4974717;28;20290;-80
2022/11/22 00:45:34;;;;;;;8.90;2.63;;;;;;;;;;4973038;28;20274;-79
2022/11/22 00:47:59;;;;;;;9.03;2.47;;;;;;;;;;4973173;28;20073;-74
2022/11/22 00:50:24;;;;;;;8.32;2.90;;;;;;;;;;4975948;28;20282;-79
2022/11/22 00:52:50;;;;;;;9.87;3.77;;;;;;;;;;4975834;28;20027;-78
2022/11/22 00:55:15;;;;;;;7.78;2.40;;;;;;;;;;4983348;28;20827;-79
2022/11/22 00:57:40;;;;;;;5.70;2.60;;;;;;;;;;4982866;28;20035;-79
2022/11/22 01:00:06;;;;;;;6.23;2.23;;;;;;;;;;4970904;28;20071;-78
2022/11/22 01:02:31;;;;;;;6.15;2.33;;;;;;;;;;4959380;28;20294;-79
2022/11/22 01:04:56;;;;;;;4.23;2.07;;;;;;;;;;4975465;28;20040;-74
2022/11/22 01:07:22;;;;;;;5.00;2.40;;;;;;;;;;4977199;28;20377;-78
2022/11/22 01:09:47;;;;;;;5.33;2.87;;;;;;;;;;4971425;28;20058;-78
2022/11/22 01:12:12;;;;;;;4.75;2.58;;;;;;;;;;4975868;28;20317;-77
2022/11/22 01:14:37;;;;;;;6.50;2.20;;;;;;;;;;4963199;28;20034;-77
2022/11/22 01:17:02;;;;;;;5.47;2.20;;;;;;;;;;4964463;28;20295;-79
2022/11/22 01:19:28;;;;;;;3.97;2.23;;;;;;;;;;4967274;28;20401;-78
2022/11/22 01:21:53;;;;;;;5.33;2.70;;;;;;;;;;4971349;28;20294;-79
2022/11/22 01:24:19;;;;;;;6.20;2.67;;;;;;;;;;4974356;28;20286;-79
2022/11/22 01:26:44;;;;;;;5.55;2.75;;;;;;;;;;4982072;28;20031;-74
2022/11/22 01:29:09;;;;;;;6.77;2.43;;;;;;;;;;4987875;28;20061;-74
2022/11/22 01:31:35;;;;;;;5.75;2.67;;;;;;;;;;4971766;28;20290;-74
2022/11/22 01:34:00;;;;;;;6.82;2.90;;;;;;;;;;4954239;28;20015;-74
2022/11/22 01:36:26;;;;;;;5.53;2.40;;;;;;;;;;4959547;28;20053;-74
2022/11/22 01:38:51;;;;;;;5.15;2.38;;;;;;;;;;4980464;28;20054;-74
2022/11/22 01:41:16;;;;;;;4.95;2.22;;;;;;;;;;4962519;28;20031;-86
2022/11/22 01:43:42;;;;;;;4.38;2.30;;;;;;;;;;4977466;28;20053;-76
2022/11/22 01:46:17;;;;;;;4.20;1.80;;;;;;;;;;4981409;28;20035;-79
2022/11/22 01:48:51;;;;;;;5.15;2.05;;;;;;;;;;4972759;28;20270;-78
2022/11/22 01:51:37;;;;;;;6.30;2.72;;;;;;;;;;4954562;28;20381;-77
2022/11/22 01:54:05;;;;;;;6.47;2.30;;;;;;;;;;4966194;28;20061;-78
2022/11/22 01:56:31;;;;;;;5.85;2.08;;;;;;;;;;4973733;28;20061;-78
2022/11/22 01:58:58;;;;;;;7.47;2.30;;;;;;;;;;4974540;28;20115;-74
2022/11/22 02:01:24;;;;;;;6.38;2.00;;;;;;;;;;4973720;28;20102;-79
2022/11/22 02:03:50;;;;;;;6.43;2.53;;;;;;;;;;4976464;28;20078;-74
2022/11/22 02:06:16;;;;;;;5.57;2.72;;;;;;;;;;4982453;28;20468;-73
2022/11/22 02:08:54;;;;;;;5.57;2.40;;;;;;;;;;4981365;28;20067;-73
2022/11/22 02:11:20;;;;;;;8.40;2.20;;;;;;;;;;4978994;28;20418;-74
2022/11/22 02:13:46;;;;;;;4.80;2.22;;;;;;;;;;4973644;28;20034;-73
2022/11/22 02:16:11;;;;;;;3.05;1.98;;;;;;;;;;4978888;28;20203;-73
2022/11/22 02:18:40;;;;;;;4.13;2.38;;;;;;;;;;4994306;28;20118;-78
2022/11/22 02:21:06;;;;;;;5.22;1.98;;;;;;;;;;4978054;28;20065;-79
2022/11/22 02:23:44;;;;;;;8.43;2.20;;;;;;;;;;4975763;28;20501;-78
2022/11/22 02:26:09;;;;;;;3.45;1.65;;;;;;;;;;4988536;28;20145;-78
2022/11/22 02:28:36;;;;;;;4.57;1.73;;;;;;;;;;4975910;28;20113;-78
2022/11/22 02:31:01;;;;;;;4.90;1.85;;;;;;;;;;4976471;28;20101;-78
2022/11/22 02:33:26;;;;;;;3.83;2.00;;;;;;;;;;4976646;28;20043;-78
2022/11/22 02:35:52;;;;;;;3.28;1.77;;;;;;;;;;4974336;28;20762;-78
2022/11/22 02:38:23;;;;;;;2.75;1.63;;;;;;;;;;4957852;28;20023;-75
2022/11/22 02:40:48;;;;;;;5.43;2.53;;;;;;;;;;4962379;28;20054;-79
2022/11/22 02:43:18;;;;;;;4.22;1.60;;;;;;;;;;4975440;28;20058;-78
2022/11/22 02:45:43;;;;;;;;;;;;;;;;;;4977776;28;20379;-78
2022/11/22 02:48:13;;;;;;;2.72;1.80;;;;;;;;;;4961591;28;20169;-77
2022/11/22 02:50:38;;;;;;;5.35;2.22;;;;;;;;;;4975781;28;20244;-80
2022/11/22 02:53:04;;;;;;;4.03;1.70;;;;;;;;;;4975420;28;20113;-77
2022/11/22 02:55:29;;;;;;;5.90;2.10;;;;;;;;;;4980046;28;20050;-79
2022/11/22 02:57:54;;;;;;;9.50;2.40;;;;;;;;;;4974377;28;20035;-74
2022/11/22 03:00:20;;;;;;;5.63;1.77;;;;;;;;;;4978530;28;20285;-73
2022/11/22 03:02:45;;;;;;;5.72;1.98;;;;;;;;;;4975251;28;20027;-76
2022/11/22 03:05:10;;;;;;;3.92;1.60;;;;;;;;;;4974519;28;20034;-73
2022/11/22 03:07:36;;;;;;;4.80;2.03;;;;;;;;;;4972811;28;20494;-73
2022/11/22 03:10:01;;;;;;;5.87;1.83;;;;;;;;;;4982264;28;20025;-72
2022/11/22 03:12:26;;;;;;;4.00;1.67;;;;;;;;;;4956793;28;20318;-79
2022/11/22 03:14:51;;;;;;;3.73;2.27;;;;;;;;;;4974832;28;20027;-79
2022/11/22 03:17:17;;;;;;;3.85;1.83;;;;;;;;;;4976821;28;20348;-74
2022/11/22 03:19:42;;;;;;;3.55;1.70;;;;;;;;;;4975990;28;20031;-73
2022/11/22 03:22:07;;;;;;;4.95;1.75;;;;;;;;;;4979070;28;20023;-73
2022/11/22 03:24:33;;;;;;;4.65;2.05;;;;;;;;;;4957602;28;20037;-73
2022/11/22 03:26:58;;;;;;;3.88;1.77;;;;;;;;;;4955733;28;20022;-73
2022/11/22 03:29:23;;;;;;;4.40;1.65;;;;;;;;;;4975404;28;20046;-73
2022/11/22 03:31:48;;;;;;;2.00;1.33;;;;;;;;;;4976975;28;20036;-74
2022/11/22 03:34:14;;;;;;;4.60;1.40;;;;;;;;;;4988024;28;20791;-76
2022/11/22 03:36:39;;;;;;;2.55;1.48;;;;;;;;;;4978732;28;20328;-74
2022/11/22 03:39:04;;;;;;;2.17;1.58;;;;;;;;;;4974217;28;20042;-76
2022/11/22 03:41:30;;;;;;;3.63;1.80;;;;;;;;;;4975194;28;20062;-75
2022/11/22 03:43:55;;;;;;;3.72;2.28;;;;;;;;;;4973607;28;20388;-75
2022/11/22 03:46:20;;;;;;;4.72;2.00;;;;;;;;;;4973739;28;20035;-75
2022/11/22 03:48:46;;;;;;;4.65;1.50;;;;;;;;;;4972579;28;20594;-80
2022/11/22 03:51:11;;;;;;;3.67;1.58;;;;;;;;;;4984152;28;20057;-73
2022/11/22 03:53:37;;;;;;;3.53;2.05;;;;;;;;;;4984934;28;20365;-75
2022/11/22 03:56:02;;;;;;;5.45;1.70;;;;;;;;;;4984859;28;20031;-74
2022/11/22 03:58:27;;;;;;;3.58;1.58;;;;;;;;;;4973049;28;20035;-76
2022/11/22 04:00:53;;;;;;;3.17;1.15;;;;;;;;;;4977203;28;20027;-75
2022/11/22 04:03:18;;;;;;;4.17;1.60;;;;;;;;;;4955953;28;20118;-74
2022/11/22 04:05:44;;;;;;;6.15;2.35;;;;;;;;;;4972850;28;20314;-72
2022/11/22 04:08:09;;;;;;;2.30;1.23;;;;;;;;;;4973780;28;20470;-75
2022/11/22 04:10:34;;;;;;;5.22;1.77;;;;;;;;;;4984010;28;20378;-75
2022/11/22 04:13:00;;;;;;;3.50;1.67;;;;;;;;;;4973236;28;20030;-75
2022/11/22 04:15:25;;;;;;;3.70;1.60;;;;;;;;;;4977651;28;20021;-79
2022/11/22 04:17:51;;;;;;;2.53;1.48;;;;;;;;;;4973210;28;20035;-75
2022/11/22 04:23:01;;;;;;;4.57;1.75;;;;;;;;;;4961142;28;20429;-74
2022/11/22 04:25:27;;;;;;;1.63;1.30;;;;;;;;;;4963898;28;20096;-73
2022/11/22 04:27:53;;;;;;;4.97;1.63;;;;;;;;;;4973910;28;20027;-75
2022/11/22 04:30:18;;;;;;;4.32;1.50;;;;;;;;;;4961811;28;20037;-75
2022/11/22 04:32:46;;;;;;;3.08;1.60;;;;;;;;;;4972798;28;20129;-76
2022/11/22 04:35:12;;;;;;;3.03;1.38;;;;;;;;;;4973321;28;20019;-76
2022/11/22 04:37:38;;;;;;;5.40;2.17;;;;;;;;;;4958654;28;20105;-75
2022/11/22 04:40:03;;;;;;;3.17;1.52;;;;;;;;;;4983529;28;20034;-75
2022/11/22 04:45:13;;;;;;;2.83;1.50;;;;;;;;;;4959767;28;20977;-85
2022/11/22 04:53:06;;;;;;;2.67;1.85;;;;;;;;;;4977943;28;20054;-86
2022/11/22 04:55:31;;;;;;;8.27;2.07;;;;;;;;;;4974938;28;20344;-86
2022/11/22 04:57:56;;;;;;;4.90;2.10;;;;;;;;;;4990796;28;20330;-86
2022/11/22 05:00:21;;;;;;;4.90;2.07;;;;;;;;;;4971886;28;20486;-86
2022/11/22 05:02:46;;;;;;;3.05;1.70;;;;;;;;;;4968123;28;20278;-79
2022/11/22 05:05:12;;;;;;;4.20;1.50;;;;;;;;;;4973477;28;20465;-75
2022/11/22 05:07:37;;;;;;;5.95;1.52;;;;;;;;;;4973048;28;20313;-80
2022/11/22 05:10:03;;;;;;;3.03;1.88;;;;;;;;;;4959168;28;20026;-79
2022/11/22 05:12:28;;;;;;;2.53;1.63;;;;;;;;;;4956335;28;20019;-79
2022/11/22 05:14:54;;;;;;;4.25;1.92;;;;;;;;;;4971770;28;20473;-80
2022/11/22 05:17:19;;;;;;;4.70;3.00;;;;;;;;;;4968986;28;20034;-79
2022/11/22 05:19:44;;;;;;;7.65;1.92;;;;;;;;;;4973289;28;20289;-79
2022/11/22 05:22:09;;;;;;;6.07;2.20;;;;;;;;;;4971443;28;20027;-74
2022/11/22 05:24:35;;;;;;;2.47;1.57;;;;;;;;;;4972805;28;20270;-74
2022/11/22 05:27:00;;;;;;;3.05;2.28;;;;;;;;;;4973107;28;20285;-74
2022/11/22 05:29:26;;;;;;;9.40;1.80;;;;;;;;;;4980779;28;20532;-75
2022/11/22 05:31:51;;;;;;;3.88;1.63;;;;;;;;;;4972119;28;20027;-74
2022/11/22 05:34:16;;;;;;;7.50;1.57;;;;;;;;;;4989283;28;20026;-75
2022/11/22 05:36:41;;;;;;;3.83;2.00;;;;;;;;;;4981978;28;20286;-74
2022/11/22 05:39:07;;;;;;;4.57;2.10;;;;;;;;;;4977532;28;20034;-78
2022/11/22 05:41:32;;;;;;;3.13;1.60;;;;;;;;;;4968673;28;20031;-73
2022/11/22 05:43:57;;;;;;;5.00;2.25;;;;;;;;;;4976688;28;20470;-73
2022/11/22 05:46:25;;;;;;;5.15;1.75;;;;;;;;;;4974893;28;20589;-75
2022/11/22 05:48:50;;;;;;;4.53;1.73;;;;;;;;;;4959168;28;20073;-73
2022/11/22 05:51:17;;;;;;;6.80;2.03;;;;;;;;;;4957302;28;20025;-74
2022/11/22 05:53:43;;;;;;;4.88;2.33;;;;;;;;;;4967891;28;20105;-74
2022/11/22 05:56:08;;;;;;;3.08;1.80;;;;;;;;;;4980075;28;20043;-74
2022/11/22 05:58:34;;;;;;;6.10;1.63;;;;;;;;;;4958082;28;20023;-84
2022/11/22 06:01:26;;;;;;;6.35;1.60;;;;;;;;;;4984534;28;20282;-74
2022/11/22 06:03:51;;;;;;;6.90;2.40;;;;;;;;;;4980742;28;20026;-73
2022/11/22 06:06:16;;;;;;;4.32;2.10;;;;;;;;;;4982180;28;20045;-74
2022/11/22 06:08:45;;;;;;;4.60;2.35;;;;;;;;;;4980014;28;20038;-74
2022/11/22 06:11:18;;;;;;;4.47;1.80;;;;;;;;;;4961730;28;20374;-74
2022/11/22 06:13:44;;;;;;;5.18;2.88;;;;;;;;;;4978834;28;20023;-74
2022/11/22 06:16:12;;;;;;;7.57;3.05;;;;;;;;;;4974323;28;20038;-74
2022/11/22 06:18:37;;;;;;;4.00;2.38;;;;;;;;;;4957498;28;20034;-75
2022/11/22 06:21:05;;;;;;;15.07;2.50;;;;;;;;;;4985320;28;20041;-74
2022/11/22 06:23:30;;;;;;;7.20;1.85;;;;;;;;;;4978001;28;20058;-75
2022/11/22 06:26:06;;;;;;;16.50;3.35;;;;;;;;;;4988459;28;20062;-75
2022/11/22 06:28:32;;;;;;;7.05;2.63;;;;;;;;;;4977282;28;20049;-76
2022/11/22 06:31:01;;;;;;;4.88;2.00;;;;;;;;;;4972941;28;20555;-75
2022/11/22 06:33:26;;;;;;;4.78;1.85;;;;;;;;;;4982082;28;20352;-74
2022/11/22 06:35:52;;;;;;;10.30;1.85;;;;;;;;;;4957596;28;20059;-78
2022/11/22 06:38:17;;;;;;;10.60;3.58;;;;;;;;;;4964360;23;20083;-76
2022/11/22 06:41:04;;;;;;;3.10;1.77;;;;;;;;;;4933306;29;20028;-76
2022/11/22 06:43:30;;;;;;;6.47;2.03;;;;;;;;;;4937174;29;20036;-74
2022/11/22 06:45:56;;;;;;;4.65;2.38;;;;;;;;;;4937210;29;20498;-73
2022/11/22 06:48:21;;;;;;;5.60;2.30;;;;;;;;;;4940311;29;20111;-75
2022/11/22 06:50:46;;;;;;;6.17;1.87;;;;;;;;;;4938062;29;20542;-75
2022/11/22 06:53:11;;;;;;;8.37;2.63;;;;;;;;;;4931294;29;20732;-72
2022/11/22 06:55:37;;;;;;;5.35;2.00;;;;;;;;;;4936409;29;20047;-71
2022/11/22 06:58:02;;;;;;;10.03;2.53;;;;;;;;;;4936837;29;20375;-70
2022/11/22 07:00:27;;;;;;;13.40;3.27;;;;;;;;;;4932837;29;20114;-69
2022/11/22 07:02:52;;;;;;;7.22;2.63;;;;;;;;;;4934207;29;20351;-68
2022/11/22 07:05:17;;;;;;;7.73;2.53;;;;;;;;;;4945184;29;20339;-70
2022/11/22 07:07:43;;;;;;;6.27;2.63;;;;;;;;;;4931588;29;20047;-72
2022/11/22 07:10:08;;;;;;;8.93;2.47;;;;;;;;;;4934284;29;20295;-73
2022/11/22 07:12:33;;;;;;;9.82;2.90;;;;;;;;;;4930106;29;20038;-74
2022/11/22 07:14:58;;;;;;;14.27;3.47;;;;;;;;;;4935261;29;20035;-73
2022/11/22 07:17:24;;;;;;;19.17;3.13;;;;;;;;;;4934801;29;20303;-75
2022/11/22 07:19:49;;;;;;;15.00;3.53;;;;;;;;;;4938166;29;20278;-75
2022/11/22 07:22:14;;;;;;;11.37;2.13;;;;;;;;;;4936544;29;20031;-74
2022/11/22 07:24:39;;;;;;;10.20;2.93;;;;;;;;;;4936063;29;20401;-73
2022/11/22 07:27:04;;;;;;;17.17;3.27;;;;;;;;;;4934938;29;20834;-75
2022/11/22 07:29:30;;;;;;;7.43;3.03;;;;;;;;;;4932881;29;20323;-80
2022/11/22 07:31:55;;;;;;;10.33;3.33;;;;;;;;;;4935262;29;20782;-78
2022/11/22 07:34:20;;;;;;;9.57;3.30;;;;;;;;;;4933896;29;20283;-72
2022/11/22 07:36:45;;;;;;;22.77;3.77;;;;;;;;;;4940450;29;20302;-71
2022/11/22 07:39:11;;;;;;;7.57;2.78;;;;;;;;;;4939164;29;20291;-70
2022/11/22 07:41:36;;;;;;;7.63;2.83;;;;;;;;;;4934106;29;20035;-75
2022/11/22 07:44:01;;;;;;;8.20;2.50;;;;;;;;;;4936384;29;20071;-72
2022/11/22 07:46:29;;;;;;;9.75;3.10;;;;;;;;;;4933032;29;20350;-70
2022/11/22 07:48:56;;;;;;;7.85;2.63;;;;;;;;;;4932494;29;20191;-75
2022/11/22 07:51:22;;;;;;;9.15;3.42;;;;;;;;;;4935043;29;20530;-70
2022/11/22 07:53:47;;;;;;;7.50;2.90;;;;;;;;;;4935470;29;20042;-70
2022/11/22 07:56:12;;;;;;;7.57;3.78;;;;;;;;;;4935853;29;20272;-70
2022/11/22 07:58:38;;;;;;;6.93;2.72;;;;;;;;;;4933003;29;20468;-71
2022/11/22 08:01:05;;;;;;;7.95;2.50;;;;;;;;;;4926051;29;20126;-69
2022/11/22 08:03:30;;;;;;;6.03;2.63;;;;;;;;;;4930248;29;20027;-71
2022/11/22 08:05:59;;;;;;;6.27;2.57;;;;;;;;;;4933036;28;20031;-73
2022/11/22 08:08:24;;;;;;;7.50;2.80;;;;;;;;;;4933979;29;20366;-72
2022/11/22 08:10:49;;;;;;;8.18;3.00;;;;;;;;;;4940308;29;20040;-76
2022/11/22 08:13:25;;;;;;;9.87;3.60;;;;;;;;;;4934180;29;20024;-80
2022/11/22 08:16:00;;;;;;;7.70;2.90;;;;;;;;;;4930182;29;20264;-77
2022/11/22 08:18:25;;;;;;;5.53;2.40;;;;;;;;;;4914729;29;20040;-80
2022/11/22 08:20:51;;;;;;;9.25;3.17;;;;;;;;;;4930169;29;20055;-77
2022/11/22 08:23:16;;;;;;;9.57;3.77;;;;;;;;;;4924174;29;20118;-78
2022/11/22 08:25:41;;;;;;;8.90;2.15;;;;;;;;;;4930711;29;20323;-72
2022/11/22 08:28:15;;;;;;;14.00;3.80;;;;;;;;;;4932325;29;20055;-78
2022/11/22 08:30:40;;;;;;;10.85;3.67;;;;;;;;;;4897071;29;20039;-77
2022/11/22 08:33:06;;;;;;;7.07;2.67;;;;;;;;;;4930143;29;20501;-79
2022/11/22 08:35:32;;;;;;;10.50;3.50;;;;;;;;;;4930340;29;20028;-77
2022/11/22 08:37:57;;;;;;;8.02;2.85;;;;;;;;;;4929011;29;20295;-76
2022/11/22 08:40:22;;;;;;;10.38;2.63;;;;;;;;;;4933288;29;20028;-76
2022/11/22 08:42:48;;;;;;;8.30;3.03;;;;;;;;;;4932671;29;20040;-76
2022/11/22 08:45:13;;;;;;;9.52;2.72;;;;;;;;;;4928399;29;20534;-72
2022/11/22 08:47:38;;;;;;;14.23;3.83;;;;;;;;;;4932083;28;20035;-76
2022/11/22 08:50:04;;;;;;;9.20;4.03;;;;;;;;;;4932012;29;20283;-77
2022/11/22 08:52:29;;;;;;;6.07;2.75;;;;;;;;;;4913882;29;20625;-77
2022/11/22 08:54:57;;;;;;;8.67;2.97;;;;;;;;;;4914666;29;20058;-78
2022/11/22 08:57:22;;;;;;;8.73;3.28;;;;;;;;;;4931918;29;20323;-79
2022/11/22 08:59:47;;;;;;;7.50;3.60;;;;;;;;;;4931348;29;20124;-80
2022/11/22 09:02:13;;;;;;;7.90;2.40;;;;;;;;;;4931087;29;20310;-76
2022/11/22 09:04:38;;;;;;;9.80;3.13;;;;;;;;;;4938052;29;20694;-75
2022/11/22 09:07:03;;;;;;;8.20;2.63;;;;;;;;;;4932187;29;20759;-76
2022/11/22 09:09:28;;;;;;;7.55;2.60;;;;;;;;;;4912769;29;20722;-76
2022/11/22 09:11:54;;;;;;;8.23;2.83;;;;;;;;;;4936114;29;20318;-79
2022/11/22 09:14:19;;;;;;;9.57;3.22;;;;;;;;;;4941379;29;20279;-75
2022/11/22 09:16:44;;;;;;;11.73;3.07;;;;;;;;;;4940464;28;20150;-76
2022/11/22 09:19:09;;;;;;;9.27;2.77;;;;;;;;;;4933684;29;20291;-76
2022/11/22 09:21:34;;;;;;;8.17;3.57;;;;;;;;;;4933707;29;20727;-72
2022/11/22 09:24:00;;;;;;;6.47;3.13;;;;;;;;;;4932893;29;20303;-71
2022/11/22 09:26:25;;;;;;;7.22;2.85;;;;;;;;;;4935312;29;20027;-69
2022/11/22 09:28:52;;;;;;;8.20;3.10;;;;;;;;;;4932321;29;20039;-71
2022/11/22 09:31:18;;;;;;;7.90;2.78;;;;;;;;;;4932941;29;20391;-71
2022/11/22 09:33:44;;;;;;;8.68;3.22;;;;;;;;;;4934037;29;20016;-72
2022/11/22 09:36:09;;;;;;;6.50;2.47;;;;;;;;;;4932522;29;20023;-72
2022/11/22 09:38:35;;;;;;;8.97;2.40;;;;;;;;;;4933720;29;20038;-71
2022/11/22 09:41:01;;;;;;;7.30;2.85;;;;;;;;;;4934320;29;20354;-73
2022/11/22 09:43:33;;;;;;;9.98;2.70;;;;;;;;;;4934972;29;20367;-75
2022/11/22 09:46:07;;;;;;;7.25;2.70;;;;;;;;;;4938141;29;20031;-75
2022/11/22 09:48:32;;;;;;;10.73;3.30;;;;;;;;;;4931846;29;20119;-75
2022/11/22 09:51:22;;;;;;;10.33;3.50;;;;;;;;;;4931045;29;20110;-74
2022/11/22 09:53:49;;;;;;;6.40;2.80;;;;;;;;;;4931316;29;20350;-74
2022/11/22 09:56:15;;;;;;;7.97;3.20;;;;;;;;;;4929509;29;20088;-73
2022/11/22 09:58:46;;;;;;;10.20;3.45;;;;;;;;;;4922769;29;20023;-75
2022/11/22 10:01:41;;;;;;;10.55;2.67;;;;;;;;;;4936223;28;20034;-78
2022/11/22 10:04:12;;;;;;;8.55;2.20;;;;;;;;;;4914955;29;20024;-77
2022/11/22 10:06:39;;;;;;;10.60;2.78;;;;;;;;;;4933692;28;20036;-79
2022/11/22 10:09:16;;;;;;;7.22;2.50;;;;;;;;;;4933005;29;20032;-78
2022/11/22 10:11:44;;;;;;;4.22;2.08;;;;;;;;;;4933304;29;20122;-78
2022/11/22 10:14:30;;;;;;;5.28;2.03;;;;;;;;;;4935278;29;20031;-77
2022/11/22 10:17:12;;;;;;;7.18;2.13;;;;;;;;;;4939360;29;20163;-74
2022/11/22 10:19:40;;;;;;;6.63;2.22;;;;;;;;;;4927484;29;20126;-72
2022/11/22 10:22:12;;;;;;;9.30;2.30;;;;;;;;;;4942445;29;20047;-70
2022/11/22 10:24:37;;;;;;;4.60;2.10;;;;;;;;;;4934164;29;20031;-69
2022/11/22 10:27:02;;;;;;;7.90;1.87;;;;;;;;;;4934568;29;20030;-71
2022/11/22 10:29:38;;;;;;;5.63;1.70;;;;;;;;;;4932546;29;20288;-70
2022/11/22 10:32:21;;;;;;;5.72;2.63;;;;;;;;;;4936145;29;20063;-70
2022/11/22 10:35:05;;;;;;;6.40;2.25;;;;;;;;;;4938421;29;20038;-81
2022/11/22 10:37:43;;;;;;;8.95;2.20;;;;;;;;;;4933962;29;20107;-77
2022/11/22 10:40:11;;;;;;;7.78;2.70;;;;;;;;;;4937079;29;20510;-75
2022/11/22 10:42:57;;;;;;;7.32;2.28;;;;;;;;;;4936644;29;20218;-77
2022/11/22 10:45:43;;;;;;;10.85;2.42;;;;;;;;;;4931989;29;20573;-77
2022/11/22 10:48:14;;;;;;;8.27;2.60;;;;;;;;;;4940571;29;20048;-76
2022/11/22 10:50:42;;;;;;;4.38;2.33;;;;;;;;;;4944353;28;20046;-76
2022/11/22 10:53:22;;;;;;;9.88;2.80;;;;;;;;;;4932526;29;20023;-74
2022/11/22 10:56:14;;;;;;;7.53;2.08;;;;;;;;;;4935769;29;20035;-69
2022/11/22 10:58:54;;;;;;;7.60;2.00;;;;;;;;;;4928789;29;20063;-69
2022/11/22 11:01:46;;;;;;;5.97;2.22;;;;;;;;;;4930996;29;20090;-70
2022/11/22 11:04:12;;;;;;;8.80;2.65;;;;;;;;;;4936145;29;20032;-70
2022/11/22 11:06:42;;;;;;;8.98;2.95;;;;;;;;;;4941165;28;20027;-70
2022/11/22 11:09:17;;;;;;;7.22;1.85;;;;;;;;;;4935836;29;20039;-69
2022/11/22 11:11:44;;;;;;;10.55;2.53;;;;;;;;;;4937220;29;20032;-72
2022/11/22 11:14:47;;;;;;;5.22;1.67;;;;;;;;;;4934104;29;20024;-77
2022/11/22 11:17:16;;;;;;;7.55;2.42;;;;;;;;;;4851899;29;20042;-75
2022/11/22 11:19:43;;;;;;;6.60;2.58;;;;;;;;;;4859421;29;20029;-77
2022/11/22 11:22:08;;;;;;;11.63;2.20;;;;;;;;;;4859778;29;20109;-76
2022/11/22 11:24:34;;;;;;;4.20;1.40;;;;;;;;;;4854795;29;20073;-76
2022/11/22 11:27:00;;;;;;;9.05;2.10;;;;;;;;;;4854772;29;20025;-75
2022/11/22 11:29:29;;;;;;;4.75;1.60;;;;;;;;;;4852020;29;20045;-75
2022/11/22 11:32:05;;;;;;;5.47;2.47;;;;;;;;;;4849555;29;20502;-76
2022/11/22 11:34:31;;;;;;;4.88;1.70;;;;;;;;;;4849654;29;20568;-75
2022/11/22 11:36:57;;;;;;;6.10;1.65;;;;;;;;;;4854968;29;20564;-74
2022/11/22 11:39:26;;;;;;;7.03;2.17;;;;;;;;;;4856434;29;20069;-75
2022/11/22 11:41:51;;;;;;;6.00;2.00;;;;;;;;;;4854707;29;20567;-75
2022/11/22 11:44:34;;;;;;;13.55;4.28;;;;;;;;;;4853324;29;20037;-64
2022/11/22 11:47:00;;;;;;;8.20;3.00;;;;;;;;;;4861452;29;20073;-77
2022/11/22 11:49:29;;;;;;;5.18;2.00;;;;;;;;;;4930890;29;20023;-74
2022/11/22 11:51:58;;;;;;;8.43;1.58;;;;;;;;;;4937531;29;20180;-77
2022/11/22 11:54:25;;;;;;;9.05;1.90;;;;;;;;;;4940370;28;20379;-79
2022/11/22 11:56:58;;;;;;;6.43;1.10;;;;;;;;;;4929943;28;20038;-79
2022/11/22 11:59:27;;;;;;;6.00;2.58;;;;;;;;;;4936321;29;20027;-78
2022/11/22 12:01:55;;;;;;;6.57;1.65;;;;;;;;;;4931866;29;20028;-77
2022/11/22 12:04:23;;;;;;;5.32;1.83;;;;;;;;;;4929683;28;20054;-76
2022/11/22 12:06:55;;;;;;;5.00;1.50;;;;;;;;;;4937824;29;20492;-72
2022/11/22 12:09:28;;;;;;;7.20;1.75;;;;;;;;;;4934304;29;20035;-68
2022/11/22 12:11:54;;;;;;;8.57;1.73;;;;;;;;;;4932508;29;20026;-69
2022/11/22 12:14:23;;;;;;;6.93;1.80;;;;;;;;;;4936473;29;20077;-70
2022/11/22 12:16:49;;;;;;;4.82;1.48;;;;;;;;;;4941165;28;20222;-70
2022/11/22 12:19:35;;;;;;;4.60;2.08;;;;;;;;;;4936312;28;20124;-69
2022/11/22 12:22:16;;;;;;;3.63;2.30;;;;;;;;;;4934775;29;20505;-67
2022/11/22 12:24:48;;;;;;;5.63;1.38;;;;;;;;;;4937167;29;20035;-80
2022/11/22 12:27:13;;;;;;;5.00;1.48;;;;;;;;;;4933868;29;20028;-81
2022/11/22 12:29:43;;;;;;;9.23;2.40;;;;;;;;;;4931582;29;20036;-79
2022/11/22 12:32:22;;;;;;;6.00;1.70;;;;;;;;;;4931762;29;20040;-83
2022/11/22 12:35:03;;;;;;;4.93;1.45;;;;;;;;;;4932199;29;20098;-82
2022/11/22 12:37:43;;;;;;;12.32;2.10;;;;;;;;;;4934655;29;20047;-81
2022/11/22 12:40:15;;;;;;;5.18;2.00;;;;;;;;;;4932047;29;20031;-77
2022/11/22 12:42:43;;;;;;;6.47;2.13;;;;;;;;;;4935361;29;20038;-76
2022/11/22 12:45:23;;;;;;;9.57;1.50;;;;;;;;;;4926091;29;20059;-77
2022/11/22 12:47:49;;;;;;;7.40;2.92;;;;;;;;;;4934790;29;20340;-77
2022/11/22 12:50:18;;;;;;;8.88;1.88;;;;;;;;;;4936028;29;20027;-76
2022/11/22 12:52:46;;;;;;;9.85;1.98;;;;;;;;;;4936120;29;20102;-75
2022/11/22 12:55:25;;;;;;;6.90;2.15;;;;;;;;;;4934128;29;20054;-76
2022/11/22 12:58:04;;;;;;;2.63;1.65;;;;;;;;;;4943257;29;20059;-75
2022/11/22 13:00:33;;;;;;;8.27;1.63;;;;;;;;;;4929324;29;20039;-76
2022/11/22 13:02:59;;;;;;;7.05;2.00;;;;;;;;;;4925561;29;20511;-73
2022/11/22 13:05:27;;;;;;;6.50;2.55;;;;;;;;;;4931590;29;20047;-72
2022/11/22 13:07:52;;;;;;;11.60;2.00;;;;;;;;;;4932426;29;20032;-72
2022/11/22 13:10:23;;;;;;;6.50;2.00;;;;;;;;;;4934027;29;20047;-72
2022/11/22 13:12:49;;;;;;;5.97;2.05;;;;;;;;;;4934576;29;20282;-71
2022/11/22 13:15:17;;;;;;;4.90;1.40;;;;;;;;;;4930917;29;20050;-72
2022/11/22 13:17:42;;;;;;;5.97;1.60;;;;;;;;;;4932886;29;20028;-72
2022/11/22 13:20:13;;;;;;;6.60;1.60;;;;;;;;;;4939545;28;20031;-74
2022/11/22 13:22:39;;;;;;;5.47;1.80;;;;;;;;;;4937033;29;20357;-77
2022/11/22 13:25:13;;;;;;;6.47;2.43;;;;;;;;;;4932504;29;20036;-75
2022/11/22 13:27:46;;;;;;;9.25;1.83;;;;;;;;;;4934423;29;20070;-78
2022/11/22 13:30:17;;;;;;;7.57;1.77;;;;;;;;;;4938539;29;20040;-75
2022/11/22 13:32:42;;;;;;;9.82;2.55;;;;;;;;;;4932914;29;20038;-77
2022/11/22 13:35:10;;;;;;;5.50;1.90;;;;;;;;;;4930999;29;20383;-78
2022/11/22 13:37:37;;;;;;;5.95;1.88;;;;;;;;;;4930201;29;20291;-82
2022/11/22 13:40:08;;;;;;;5.15;1.30;;;;;;;;;;4933870;29;20038;-74
2022/11/22 13:42:34;;;;;;;6.25;1.55;;;;;;;;;;4932845;29;20112;-82
2022/11/22 13:44:59;;;;;;;4.83;1.33;;;;;;;;;;4936249;29;20102;-83
2022/11/22 13:47:27;;;;;;;9.87;2.07;;;;;;;;;;4932674;29;20315;-81
2022/11/22 13:49:52;;;;;;;5.93;1.70;;;;;;;;;;4936313;29;20495;-83
2022/11/22 13:52:18;;;;;;;1.95;1.05;;;;;;;;;;4935317;29;20039;-80
2022/11/22 13:54:46;;;;;;;2.40;0.77;;;;;;;;;;4932110;29;20054;-80
2022/11/22 13:57:30;;;;;;;4.35;1.65;;;;;;;;;;4934484;29;20566;-75
2022/11/22 14:00:13;;;;;;;4.82;1.40;;;;;;;;;;4934501;29;20075;-71
2022/11/22 14:02:44;;;;;;;5.80;1.52;;;;;;;;;;4939043;29;20052;-71
2022/11/22 14:05:32;;;;;;;3.97;1.38;;;;;;;;;;4936613;29;20028;-71
2022/11/22 14:07:59;;;;;;;2.40;0.90;;;;;;;;;;4930474;29;20149;-71
2022/11/22 14:10:31;;;;;;;2.67;1.05;;;;;;;;;;4942496;29;20559;-74
2022/11/22 14:12:59;;;;;;;2.97;1.15;;;;;;;;;;4942845;28;20049;-72
2022/11/22 14:15:30;;;;;;;2.85;1.40;;;;;;;;;;4935967;29;20514;-75
2022/11/22 14:18:05;;;;;;;3.17;1.10;;;;;;;;;;4937145;29;20083;-75
2022/11/22 14:20:36;;;;;;;3.22;1.10;;;;;;;;;;4932873;29;20047;-72
2022/11/22 14:23:11;;;;;;;4.57;1.73;;;;;;;;;;4935816;29;20024;-64
2022/11/22 14:25:39;;;;;;;10.45;3.00;;;;;;;;;;4934557;29;20036;-71
2022/11/22 14:28:34;;;;;;;3.90;1.55;;;;;;;;;;4936142;29;20118;-71
2022/11/22 14:31:06;;;;;;;4.55;1.77;;;;;;;;;;4937416;29;20506;-75
2022/11/22 14:33:31;;;;;;;6.10;1.60;;;;;;;;;;4946413;28;20058;-69
2022/11/22 14:36:06;;;;;;;2.47;1.27;;;;;;;;;;4937286;29;20643;-73
2022/11/22 14:38:32;;;;;;;6.57;1.63;;;;;;;;;;4929535;29;20036;-71
2022/11/22 14:41:16;;;;;;;4.85;1.20;;;;;;;;;;4938803;29;20020;-73
2022/11/22 14:43:41;;;;;;;5.22;1.45;;;;;;;;;;4932958;29;20031;-73
2022/11/22 14:46:12;;;;;;;5.47;1.45;;;;;;;;;;4933588;29;20054;-74
2022/11/22 14:49:02;;;;;;;8.48;1.95;;;;;;;;;;4935475;29;20035;-73
2022/11/22 14:51:27;;;;;;;;;;;;;;;;;;4938303;28;20388;-77
2022/11/22 14:54:00;;;;;;;6.23;1.80;;;;;;;;;;4933549;29;19925;-84
2022/11/22 14:56:29;;;;;;;2.95;1.55;;;;;;;;;;4937994;29;20031;-85
2022/11/22 14:59:13;;;;;;;2.15;1.30;;;;;;;;;;4936800;29;20064;-78
2022/11/22 15:01:44;;;;;;;4.20;1.50;;;;;;;;;;4925636;29;20050;-78